Current Conditions
Partly Cloudy
Conditions



Pressure
29.84 (inHG) - 1010.52 (mb)
Visibility

10.0 (miles) - 16.1 (km)
Temperature
50  °F
Temperature
41  °F
Dewpoint
71  %
 Humidity
Wind Speed
14  mph
12  kts
23  km/h
6.3  m/s
Wind Direction
N
45°
E
90°
135°
S
180°
225°
W
270°
315°
 140°

South East
Airport Data
KNUQ
Moffett Federal Airfield
Metar :KNUQ 011335Z AUTO 14012KT 10SM FEW021 BKN029 OVC036 10/05 A2984 RMK AO2
Thu 1st December 06:35 am
Raw Metar Info
Raw METAR is the most common format in the world for the transmission of observational weather data. It is highly standardized through the International Civil Aviation Organization (ICAO), which allows it to be understood throughout most of the world.
API Info
Data Provided by
https://www.checkwx.com/weather/KNUQ

Aviation Weather providing METAR, TAF, AIRMET, SIGMET and OUTLOOK Weather Reports
© Info
CSS/SVG/PHP scripts were developed by weather34.com for use in the weather34 template © 2015-2022

Guide Info provided by Metar-Wikipedia